Time;durP1;ratioP1;P1;durP2;ratioP2;P2;SDS_P1;SDS_P2;PMS_P1;PMS_P2;Temp;Humidity;BMP_temperature;BMP_pressure;BME280_temperature;BME280_humidity;BME280_pressure;Samples;Min_cycle;Max_cycle;Signal;HPM_P1;HPM_P2
2023/04/05 00:01:27;;;;;;;12.53;6.50;;;-0.90;99.90;;;;;;6251116;23;20214;-82
2023/04/05 00:03:53;;;;;;;11.63;7.63;;;-0.90;99.90;;;;;;6249799;23;20429;-83
2023/04/05 00:06:25;;;;;;;8.45;6.15;;;-0.90;99.90;;;;;;6224154;23;20164;-83
2023/04/05 00:08:54;;;;;;;12.82;7.97;;;-0.90;99.90;;;;;;6249600;22;20180;-83
2023/04/05 00:11:24;;;;;;;10.10;6.57;;;-0.90;99.90;;;;;;6249827;23;20152;-83
2023/04/05 00:13:50;;;;;;;8.77;6.60;;;-0.90;99.90;;;;;;6248448;23;20147;-83
2023/04/05 00:16:17;;;;;;;10.00;6.40;;;-0.90;99.90;;;;;;6247218;23;20212;-83
2023/04/05 00:18:50;;;;;;;12.43;6.32;;;-0.90;99.90;;;;;;6248161;22;20472;-83
2023/04/05 00:21:16;;;;;;;7.70;6.10;;;-0.90;99.90;;;;;;6246391;23;20208;-83
2023/04/05 00:23:43;;;;;;;11.88;6.65;;;-0.80;99.90;;;;;;6249782;23;20155;-82
2023/04/05 00:26:12;;;;;;;7.07;6.30;;;-0.80;99.90;;;;;;6247698;23;20622;-83
2023/04/05 00:28:38;;;;;;;8.35;5.60;;;-0.80;99.90;;;;;;6245174;22;20187;-83
2023/04/05 00:31:04;;;;;;;12.47;5.97;;;-0.90;99.90;;;;;;6248490;23;20141;-83
2023/04/05 00:33:30;;;;;;;14.15;6.50;;;-0.90;99.90;;;;;;6249157;23;20145;-82
2023/04/05 00:35:56;;;;;;;9.90;6.17;;;-0.90;99.90;;;;;;6249617;23;20180;-83
2023/04/05 00:38:21;;;;;;;13.13;5.60;;;-0.90;99.90;;;;;;6249836;22;20251;-82
2023/04/05 00:40:47;;;;;;;12.10;7.13;;;-0.90;99.90;;;;;;6249885;23;20149;-82
2023/04/05 00:43:13;;;;;;;9.47;6.57;;;-0.90;99.90;;;;;;6249515;23;20172;-82
2023/04/05 00:45:38;;;;;;;10.65;7.07;;;-1.00;99.90;;;;;;6248969;23;20145;-82
2023/04/05 00:48:05;;;;;;;12.90;6.33;;;-1.00;99.90;;;;;;6249667;22;20184;-82
2023/04/05 00:50:31;;;;;;;7.93;5.32;;;-1.00;99.90;;;;;;6251087;23;20183;-82
2023/04/05 00:52:57;;;;;;;8.95;5.72;;;-1.00;99.90;;;;;;6250157;23;20595;-82
2023/04/05 00:55:25;;;;;;;9.07;5.55;;;-1.00;99.90;;;;;;6251117;23;20148;-82
2023/04/05 00:57:52;;;;;;;9.88;5.95;;;-1.10;99.90;;;;;;6249334;22;20537;-83
2023/04/05 01:00:20;;;;;;;9.18;6.05;;;-1.10;99.90;;;;;;6246100;23;20137;-83
2023/04/05 01:02:56;;;;;;;12.93;6.50;;;-1.20;99.90;;;;;;6245046;23;20148;-82
2023/04/05 01:05:42;;;;;;;8.70;5.75;;;-1.20;99.90;;;;;;6246359;23;20133;-83
2023/04/05 01:08:21;;;;;;;7.93;5.55;;;-1.20;99.90;;;;;;6248970;22;20199;-81
2023/04/05 01:10:53;;;;;;;10.48;5.85;;;-1.20;99.90;;;;;;6246553;23;20129;-82
2023/04/05 01:13:19;;;;;;;9.60;5.72;;;-1.20;99.90;;;;;;6249090;23;20141;-82
2023/04/05 01:15:45;;;;;;;8.63;5.27;;;-1.20;99.90;;;;;;6248120;23;20133;-83
2023/04/05 01:18:12;;;;;;;8.77;5.67;;;-1.20;99.90;;;;;;6248690;22;20464;-82
2023/04/05 01:20:44;;;;;;;9.93;5.72;;;-1.20;99.90;;;;;;6247108;23;20390;-82
2023/04/05 01:23:41;;;;;;;14.23;5.50;;;-1.20;99.90;;;;;;6246202;23;20155;-82
2023/04/05 01:26:31;;;;;;;5.13;4.55;;;-1.20;99.90;;;;;;6246887;23;20244;-83
2023/04/05 01:29:36;;;;;;;8.20;6.10;;;-1.20;99.90;;;;;;6246786;22;20180;-83
2023/04/05 01:32:23;;;;;;;10.75;5.60;;;-1.20;99.90;;;;;;6245061;23;20329;-83
2023/04/05 01:34:51;;;;;;;7.80;5.03;;;-1.20;99.90;;;;;;6244944;23;20129;-83
2023/04/05 01:37:21;;;;;;;8.15;4.95;;;-1.40;99.90;;;;;;6218090;23;20484;-83
2023/04/05 01:39:49;;;;;;;8.25;5.43;;;-1.30;99.90;;;;;;6242766;23;20136;-82
2023/04/05 01:42:22;;;;;;;8.90;5.28;;;-1.40;99.90;;;;;;6246790;23;20149;-83
2023/04/05 01:44:47;;;;;;;12.43;4.97;;;-1.40;99.90;;;;;;6244279;23;20129;-82
2023/04/05 01:47:13;;;;;;;8.20;4.37;;;-1.50;99.90;;;;;;6249030;23;20145;-83
2023/04/05 01:49:38;;;;;;;6.23;4.80;;;-1.50;99.90;;;;;;6224524;23;20179;-82
2023/04/05 01:52:03;;;;;;;9.27;5.77;;;-1.50;99.90;;;;;;6249650;23;20183;-83
2023/04/05 01:54:29;;;;;;;7.93;4.40;;;-1.50;99.90;;;;;;6249489;23;20157;-83
2023/04/05 01:56:55;;;;;;;9.10;6.83;;;-1.50;99.90;;;;;;6251294;23;20180;-82
2023/04/05 01:59:21;;;;;;;9.50;5.55;;;-1.50;99.90;;;;;;6251078;22;20191;-84
2023/04/05 02:01:46;;;;;;;6.50;4.43;;;-1.50;99.90;;;;;;6250196;23;20161;-83
2023/04/05 02:04:12;;;;;;;6.97;4.23;;;-1.60;99.90;;;;;;6251517;23;20154;-83
2023/04/05 02:06:37;;;;;;;7.57;4.70;;;-1.60;99.90;;;;;;6251760;23;20137;-83
2023/04/05 02:09:03;;;;;;;6.20;4.53;;;-1.70;99.90;;;;;;6250935;22;20185;-82
2023/04/05 02:11:28;;;;;;;8.73;5.00;;;-1.70;99.90;;;;;;6253136;23;20149;-83
2023/04/05 02:13:54;;;;;;;8.50;5.47;;;-1.80;99.90;;;;;;6225874;23;20156;-83
2023/04/05 02:16:19;;;;;;;7.67;4.47;;;-1.80;99.90;;;;;;6253142;23;20156;-82
2023/04/05 02:18:49;;;;;;;8.40;5.23;;;-1.80;99.90;;;;;;6250715;22;20180;-82
2023/04/05 02:21:15;;;;;;;9.30;5.47;;;-1.90;99.90;;;;;;6252622;23;20136;-83
2023/04/05 02:23:41;;;;;;;6.63;4.38;;;-1.90;99.90;;;;;;6225836;23;20156;-82
2023/04/05 02:26:07;;;;;;;7.40;3.87;;;-2.00;99.90;;;;;;6252045;23;20178;-82
2023/04/05 02:28:33;;;;;;;11.03;5.13;;;-2.10;99.90;;;;;;6252269;22;20423;-82
2023/04/05 02:30:58;;;;;;;6.63;4.43;;;-2.20;99.90;;;;;;6252677;23;20144;-82
2023/04/05 02:33:24;;;;;;;9.23;4.60;;;-2.10;99.90;;;;;;6252248;23;20274;-82
2023/04/05 02:35:51;;;;;;;12.15;4.70;;;-2.10;99.90;;;;;;6252260;23;20144;-82
2023/04/05 02:38:17;;;;;;;9.55;5.32;;;-2.10;99.90;;;;;;6252659;22;20231;-83
2023/04/05 02:40:45;;;;;;;6.93;4.20;;;-2.20;99.90;;;;;;6224209;23;20167;-83
2023/04/05 02:43:11;;;;;;;10.60;5.40;;;-2.20;99.90;;;;;;6250027;23;20378;-83
2023/04/05 02:45:36;;;;;;;10.03;4.97;;;-2.20;99.90;;;;;;6252026;23;20164;-83
2023/04/05 02:48:02;;;;;;;6.17;4.90;;;-2.30;99.90;;;;;;6250641;22;20219;-84
2023/04/05 02:50:27;;;;;;;12.27;5.53;;;-2.30;99.90;;;;;;6249440;23;20231;-83
2023/04/05 02:52:53;;;;;;;11.27;4.50;;;-2.40;99.90;;;;;;6250578;23;20153;-83
2023/04/05 02:55:18;;;;;;;6.07;4.27;;;-2.40;99.90;;;;;;6250460;23;20145;-83
2023/04/05 02:57:44;;;;;;;11.87;4.40;;;-2.40;99.90;;;;;;6249466;22;20694;-83
2023/04/05 03:00:11;;;;;;;14.32;5.50;;;-2.30;99.90;;;;;;6250230;23;20583;-82
2023/04/05 03:02:37;;;;;;;10.88;5.05;;;-2.40;99.90;;;;;;6249366;23;20144;-82
2023/04/05 03:05:03;;;;;;;7.97;4.60;;;-2.40;99.90;;;;;;6223351;23;20160;-82
2023/04/05 03:07:29;;;;;;;8.98;5.35;;;-2.50;99.90;;;;;;6250019;22;21291;-82
2023/04/05 03:09:55;;;;;;;10.70;5.45;;;-2.50;99.90;;;;;;6251566;23;20195;-84
2023/04/05 03:12:21;;;;;;;13.20;5.45;;;-2.40;99.90;;;;;;6223587;23;20164;-84
2023/04/05 03:14:46;;;;;;;9.13;6.30;;;-2.40;99.90;;;;;;6249370;23;20149;-85
2023/04/05 03:17:12;;;;;;;7.67;5.13;;;-2.50;99.90;;;;;;6249083;23;20332;-84
2023/04/05 03:19:37;;;;;;;9.57;5.80;;;-2.60;99.90;;;;;;6248951;22;20817;-83
2023/04/05 03:22:03;;;;;;;9.20;5.73;;;-2.60;99.90;;;;;;6248529;23;20195;-83
2023/04/05 03:24:30;;;;;;;10.80;5.60;;;-2.70;99.90;;;;;;6219746;23;20153;-85
2023/04/05 03:26:55;;;;;;;17.15;6.15;;;-2.70;99.90;;;;;;6220849;23;20754;-85
2023/04/05 03:29:21;;;;;;;10.33;5.07;;;-2.80;99.90;;;;;;6223043;23;20246;-85
2023/04/05 03:31:48;;;;;;;10.30;5.20;;;-2.80;99.90;;;;;;6250939;23;20202;-85
2023/04/05 03:34:13;;;;;;;9.95;6.13;;;-2.80;99.90;;;;;;6251641;23;20159;-85
2023/04/05 03:36:42;;;;;;;11.90;5.90;;;-2.70;99.90;;;;;;6251350;23;20144;-84
2023/04/05 03:39:12;;;;;;;10.98;5.40;;;-2.70;99.90;;;;;;6250468;22;20263;-85
2023/04/05 03:41:39;;;;;;;11.57;6.55;;;-2.70;99.90;;;;;;6221142;23;20198;-84
2023/04/05 03:44:05;;;;;;;9.80;5.97;;;-2.80;99.90;;;;;;6251425;23;20149;-84
2023/04/05 03:46:31;;;;;;;10.65;5.45;;;-2.70;99.90;;;;;;6250891;23;20144;-84
2023/04/05 03:48:57;;;;;;;9.90;5.90;;;-2.70;99.90;;;;;;6251749;22;20194;-83
2023/04/05 03:51:22;;;;;;;10.60;5.82;;;-2.70;99.90;;;;;;6251689;23;20611;-83
2023/04/05 03:53:49;;;;;;;12.57;6.93;;;-2.70;99.90;;;;;;6250471;23;20140;-84
2023/04/05 03:56:15;;;;;;;6.43;4.47;;;-2.70;99.90;;;;;;6250451;23;20371;-84
2023/04/05 03:58:40;;;;;;;12.63;6.50;;;-2.70;99.90;;;;;;6250497;22;20168;-84
2023/04/05 04:01:06;;;;;;;9.70;6.70;;;-2.70;99.90;;;;;;6224686;23;20642;-84
2023/04/05 04:03:32;;;;;;;7.33;5.50;;;-2.80;99.90;;;;;;6253737;23;20229;-84
2023/04/05 04:05:57;;;;;;;10.97;6.37;;;-2.80;99.90;;;;;;6226854;23;20153;-84
2023/04/05 04:08:23;;;;;;;12.27;6.40;;;-2.80;99.90;;;;;;6253572;22;20263;-84
2023/04/05 04:10:49;;;;;;;8.90;6.03;;;-2.90;99.90;;;;;;6252528;23;20148;-84
2023/04/05 04:13:14;;;;;;;9.97;6.10;;;-2.80;99.90;;;;;;6253121;23;20140;-84
2023/04/05 04:15:40;;;;;;;10.67;6.30;;;-2.80;99.90;;;;;;6252146;23;20363;-84
2023/04/05 04:18:05;;;;;;;9.30;6.57;;;-2.80;99.90;;;;;;6254146;22;20184;-84
2023/04/05 04:20:31;;;;;;;8.90;5.47;;;-2.80;99.90;;;;;;6228375;23;20176;-84
2023/04/05 04:22:57;;;;;;;8.50;5.63;;;-2.80;99.90;;;;;;6227491;23;20164;-84
2023/04/05 04:25:25;;;;;;;9.57;6.40;;;-2.80;99.90;;;;;;6253096;23;20152;-85
2023/04/05 04:27:51;;;;;;;10.02;5.70;;;-2.90;99.90;;;;;;6249372;22;20423;-85
2023/04/05 04:30:17;;;;;;;9.68;5.78;;;-2.90;99.90;;;;;;6249460;23;20137;-85
2023/04/05 04:32:52;;;;;;;12.30;6.67;;;-2.80;99.90;;;;;;6250024;23;20149;-85
2023/04/05 04:35:26;;;;;;;10.27;6.72;;;-2.80;99.90;;;;;;6251698;23;20125;-84
2023/04/05 04:38:03;;;;;;;10.32;6.95;;;-2.80;99.90;;;;;;6251550;22;20167;-84
2023/04/05 04:40:39;;;;;;;13.30;7.10;;;-2.70;99.90;;;;;;6225846;23;20148;-84
2023/04/05 04:43:13;;;;;;;13.30;7.03;;;-2.60;99.90;;;;;;6250447;23;20470;-84
2023/04/05 04:45:38;;;;;;;12.07;6.30;;;-2.50;99.90;;;;;;6250983;23;20137;-86
2023/04/05 04:48:04;;;;;;;12.67;7.53;;;-2.50;99.90;;;;;;6224315;23;20207;-84
2023/04/05 04:50:31;;;;;;;10.50;5.75;;;-2.40;99.90;;;;;;6247947;23;20399;-81
2023/04/05 04:52:58;;;;;;;11.93;7.10;;;-2.40;99.90;;;;;;6246674;23;20133;-81
2023/04/05 04:55:24;;;;;;;8.70;6.05;;;-2.20;99.90;;;;;;6218262;23;20248;-83
2023/04/05 04:57:51;;;;;;;11.50;5.95;;;-2.20;99.90;;;;;;6219705;23;20181;-84
2023/04/05 05:00:17;;;;;;;8.30;5.70;;;-2.20;99.90;;;;;;6220754;23;20168;-83
2023/04/05 05:02:44;;;;;;;14.98;6.40;;;-2.20;99.90;;;;;;6220624;23;20163;-83
2023/04/05 05:05:10;;;;;;;17.33;6.82;;;-2.10;99.90;;;;;;6247622;23;20633;-83
2023/04/05 05:07:37;;;;;;;12.98;5.43;;;-2.10;99.90;;;;;;6246567;22;20241;-83
2023/04/05 05:10:03;;;;;;;11.65;6.80;;;-2.10;99.90;;;;;;6246880;23;20149;-82
2023/04/05 05:12:30;;;;;;;10.50;6.45;;;-2.10;99.90;;;;;;6240764;23;20618;-83
2023/04/05 05:14:56;;;;;;;12.48;7.88;;;-1.90;99.90;;;;;;6241454;23;20184;-82
2023/04/05 05:17:22;;;;;;;14.20;7.10;;;-0.40;99.90;;;;;;6243908;22;20905;-83
2023/04/05 05:19:48;;;;;;;9.35;6.60;;;-0.40;99.90;;;;;;6276748;22;20585;-82
2023/04/05 05:22:13;;;;;;;8.60;5.63;;;0.80;99.90;;;;;;6276720;22;20132;-82
2023/04/05 05:24:39;;;;;;;15.17;7.47;;;1.60;99.90;;;;;;6272336;22;20861;-82
2023/04/05 05:27:05;;;;;;;19.93;7.70;;;2.70;99.90;;;;;;6270182;22;20136;-84
2023/04/05 05:29:31;;;;;;;22.47;9.27;;;3.80;99.90;;;;;;6245046;22;20717;-82
2023/04/05 05:31:57;;;;;;;15.77;8.13;;;5.00;99.90;;;;;;6273769;22;20128;-83
2023/04/05 05:34:23;;;;;;;8.90;6.03;;;5.60;99.90;;;;;;6273004;22;20484;-82
2023/04/05 05:36:48;;;;;;;12.90;5.60;;;4.70;99.90;;;;;;6272966;22;20627;-82
2023/04/05 05:39:14;;;;;;;9.27;5.60;;;4.20;99.90;;;;;;6273735;22;20198;-83
2023/04/05 05:41:40;;;;;;;11.03;5.97;;;3.50;99.90;;;;;;6276376;22;20136;-82
2023/04/05 05:44:06;;;;;;;8.30;5.77;;;2.40;99.90;;;;;;6276489;22;20374;-83
2023/04/05 05:46:31;;;;;;;9.47;5.77;;;1.70;99.90;;;;;;6275750;22;20136;-83
2023/04/05 05:48:57;;;;;;;9.80;5.87;;;0.90;99.90;;;;;;6247002;22;20179;-82
2023/04/05 05:51:22;;;;;;;10.17;6.20;;;0.90;99.90;;;;;;6275680;22;20141;-83
2023/04/05 05:53:48;;;;;;;10.90;4.87;;;0.70;99.90;;;;;;6274219;22;20144;-83
2023/04/05 05:56:13;;;;;;;10.17;5.20;;;1.20;99.90;;;;;;6274501;22;20144;-82
2023/04/05 05:58:39;;;;;;;11.57;5.57;;;3.10;99.90;;;;;;6274938;22;20263;-82
2023/04/05 06:01:10;;;;;;;6.00;4.83;;;5.50;99.90;;;;;;6247540;22;20167;-83
2023/04/05 06:03:36;;;;;;;7.20;5.20;;;7.40;99.90;;;;;;6273794;22;20371;-82
2023/04/05 06:06:04;;;;;;;9.10;6.23;;;8.80;99.90;;;;;;6272288;22;20496;-83
2023/04/05 06:08:30;;;;;;;17.92;12.90;;;10.20;99.90;;;;;;6272992;22;20422;-83
2023/04/05 06:10:56;;;;;;;15.00;8.00;;;11.80;96.90;;;;;;6273934;22;20151;-82
2023/04/05 06:13:22;;;;;;;12.53;6.50;;;14.00;92.60;;;;;;6274036;22;20167;-82
2023/04/05 06:15:48;;;;;;;6.10;5.30;;;16.00;85.10;;;;;;6269376;22;20939;-82
2023/04/05 06:18:14;;;;;;;6.83;5.70;;;17.40;73.10;;;;;;6262794;22;20411;-82
2023/04/05 06:20:41;;;;;;;6.80;6.07;;;17.50;58.30;;;;;;6242100;23;20206;-82
2023/04/05 06:23:07;;;;;;;8.17;5.57;;;18.20;56.90;;;;;;6241244;23;20371;-83
2023/04/05 06:25:33;;;;;;;16.23;5.07;;;19.20;52.40;;;;;;6215616;23;20751;-83
2023/04/05 06:27:58;;;;;;;10.73;5.90;;;20.00;49.20;;;;;;6243863;22;20702;-82
2023/04/05 06:30:24;;;;;;;8.20;6.20;;;20.70;46.80;;;;;;6245199;23;20195;-83
2023/04/05 06:32:53;;;;;;;6.30;5.70;;;21.00;44.20;;;;;;6216012;23;20634;-83
2023/04/05 06:35:20;;;;;;;8.20;5.87;;;20.70;42.10;;;;;;6243344;23;20161;-83
2023/04/05 06:37:45;;;;;;;11.10;6.03;;;21.00;41.70;;;;;;6243614;22;20391;-82
2023/04/05 06:40:12;;;;;;;6.37;5.00;;;21.60;42.00;;;;;;6243266;23;20422;-83
2023/04/05 06:42:38;;;;;;;5.27;4.70;;;21.80;38.20;;;;;;6242320;23;20137;-82
2023/04/05 06:45:04;;;;;;;6.50;5.33;;;21.10;39.30;;;;;;6242527;23;20367;-83
2023/04/05 06:47:38;;;;;;;7.50;4.63;;;21.60;39.00;;;;;;6216406;22;20183;-82
2023/04/05 06:50:05;;;;;;;8.73;4.73;;;21.70;39.40;;;;;;6246933;23;20348;-83
2023/04/05 06:52:32;;;;;;;7.57;4.90;;;22.30;38.20;;;;;;6246849;23;20898;-83
2023/04/05 06:54:57;;;;;;;8.40;5.77;;;22.80;36.90;;;;;;6245235;23;20699;-82
2023/04/05 06:57:23;;;;;;;6.10;4.57;;;24.20;34.60;;;;;;6245884;22;20375;-82
2023/04/05 06:59:51;;;;;;;6.30;4.67;;;24.40;32.50;;;;;;6246183;23;20183;-83
2023/04/05 07:02:18;;;;;;;5.27;4.40;;;24.30;32.90;;;;;;6245495;23;20626;-82
2023/04/05 07:04:45;;;;;;;8.37;4.70;;;24.00;32.50;;;;;;6242411;23;20372;-83
2023/04/05 07:07:11;;;;;;;5.97;4.73;;;23.60;32.20;;;;;;6243894;23;20371;-82
2023/04/05 07:09:37;;;;;;;7.80;4.60;;;23.60;32.60;;;;;;6242986;22;21144;-85
2023/04/05 07:12:04;;;;;;;7.30;4.90;;;24.00;32.50;;;;;;6243880;23;21203;-86
2023/04/05 07:14:31;;;;;;;9.03;4.20;;;25.70;30.10;;;;;;6218790;23;20834;-84
2023/04/05 07:16:57;;;;;;;7.67;4.80;;;25.70;30.60;;;;;;6244155;23;21065;-84
2023/04/05 07:19:22;;;;;;;6.80;4.60;;;26.10;30.00;;;;;;6242173;22;20419;-84
2023/04/05 07:21:48;;;;;;;18.10;6.17;;;25.30;29.40;;;;;;6238319;23;20133;-84
2023/04/05 07:24:14;;;;;;;8.07;4.97;;;24.40;29.20;;;;;;6241553;23;20242;-84
2023/04/05 07:26:40;;;;;;;10.17;6.67;;;24.50;30.00;;;;;;6211150;23;20474;-83
2023/04/05 07:29:07;;;;;;;7.43;6.60;;;24.80;29.70;;;;;;6211367;23;20283;-84
2023/04/05 07:31:33;;;;;;;8.60;6.03;;;25.00;29.80;;;;;;6213327;23;20531;-84
2023/04/05 07:34:00;;;;;;;8.40;5.93;;;24.40;29.50;;;;;;6240528;23;20401;-83
2023/04/05 07:36:27;;;;;;;10.47;5.17;;;24.80;30.10;;;;;;6212430;23;20755;-84
2023/04/05 07:38:53;;;;;;;7.50;5.40;;;24.80;29.80;;;;;;6239265;22;20399;-83
2023/04/05 07:41:19;;;;;;;6.47;5.87;;;23.90;29.50;;;;;;6241194;23;20360;-85
2023/04/05 07:43:45;;;;;;;10.03;5.77;;;22.80;29.40;;;;;;6240175;23;20355;-84
2023/04/05 07:46:11;;;;;;;7.70;5.53;;;22.40;30.70;;;;;;6214212;23;20764;-85
2023/04/05 07:48:37;;;;;;;9.90;6.43;;;21.30;31.20;;;;;;6213521;23;20485;-83
2023/04/05 07:51:07;;;;;;;7.80;6.00;;;21.30;31.70;;;;;;6241610;23;20832;-84
2023/04/05 07:53:33;;;;;;;10.23;6.70;;;21.40;31.90;;;;;;6239309;23;20240;-83
2023/04/05 07:56:03;;;;;;;10.00;5.70;;;22.60;32.70;;;;;;6212238;23;20425;-84
2023/04/05 07:58:29;;;;;;;7.63;5.57;;;22.70;32.30;;;;;;6240389;22;20391;-84
2023/04/05 08:01:01;;;;;;;5.70;5.20;;;24.50;30.90;;;;;;6239622;23;20421;-84
2023/04/05 08:03:31;;;;;;;8.67;6.60;;;22.60;30.60;;;;;;6240840;23;20148;-83
2023/04/05 08:05:57;;;;;;;9.43;5.53;;;23.00;31.30;;;;;;6239606;23;20807;-83
2023/04/05 08:08:23;;;;;;;7.13;5.40;;;23.00;31.00;;;;;;6240348;22;20427;-83
2023/04/05 08:10:49;;;;;;;9.47;5.20;;;22.90;31.00;;;;;;6213771;23;20731;-84
2023/04/05 08:13:16;;;;;;;7.00;6.30;;;21.80;31.40;;;;;;6241566;23;20395;-84
2023/04/05 08:15:42;;;;;;;5.67;5.17;;;20.90;32.50;;;;;;6223418;23;20227;-85
2023/04/05 08:18:07;;;;;;;9.33;6.50;;;21.00;33.30;;;;;;6243652;22;20411;-84
2023/04/05 08:20:37;;;;;;;12.50;5.97;;;20.90;32.80;;;;;;6242409;23;20148;-87
2023/04/05 08:23:03;;;;;;;6.97;5.53;;;19.90;32.70;;;;;;6242452;23;20498;-84
2023/04/05 08:25:29;;;;;;;9.13;5.97;;;19.20;34.90;;;;;;6246006;23;20413;-83
2023/04/05 08:27:54;;;;;;;7.80;5.87;;;18.20;36.50;;;;;;6246063;22;20427;-84
2023/04/05 08:30:22;;;;;;;8.00;6.20;;;18.40;37.60;;;;;;6216729;23;20535;-84
2023/04/05 08:32:47;;;;;;;7.43;6.00;;;18.70;36.80;;;;;;6216185;23;20175;-85
2023/04/05 08:35:13;;;;;;;19.00;9.50;;;;;;;;;;6241027;23;20467;-84
2023/04/05 08:37:39;;;;;;;9.80;5.90;;;21.30;33.00;;;;;;6242133;22;20133;-85
2023/04/05 08:40:07;;;;;;;9.53;6.23;;;21.40;34.00;;;;;;6242625;23;20356;-85
2023/04/05 08:42:45;;;;;;;8.77;5.93;;;22.20;33.50;;;;;;6241010;23;20329;-85
2023/04/05 08:45:13;;;;;;;10.03;6.40;;;22.90;32.60;;;;;;6214683;23;20375;-85
2023/04/05 08:47:41;;;;;;;16.53;6.23;;;22.40;31.80;;;;;;6243882;22;20702;-85
2023/04/05 08:50:09;;;;;;;9.73;6.40;;;22.50;32.60;;;;;;6241802;23;20364;-85
2023/04/05 08:52:38;;;;;;;6.60;5.90;;;21.90;31.60;;;;;;6217733;23;20562;-86
2023/04/05 08:55:05;;;;;;;11.63;6.53;;;22.20;32.70;;;;;;6218712;23;20372;-86
2023/04/05 08:57:32;;;;;;;8.73;6.20;;;22.10;32.10;;;;;;6245442;22;20462;-85
2023/04/05 09:00:00;;;;;;;8.90;7.07;;;22.10;32.50;;;;;;6245813;23;20367;-86
2023/04/05 09:02:26;;;;;;;12.50;6.93;;;22.00;32.00;;;;;;6242005;23;20375;-85
2023/04/05 09:04:52;;;;;;;7.53;6.73;;;22.60;32.60;;;;;;6218483;23;20466;-85
2023/04/05 09:07:19;;;;;;;8.33;5.97;;;22.70;30.90;;;;;;6245144;23;20375;-85
2023/04/05 09:09:52;;;;;;;9.03;6.73;;;22.60;32.80;;;;;;6217632;23;20463;-85
2023/04/05 09:12:21;;;;;;;9.10;6.73;;;21.80;31.50;;;;;;6244387;23;20356;-86
2023/04/05 09:14:48;;;;;;;7.17;6.30;;;21.30;32.40;;;;;;6245738;23;20390;-85
2023/04/05 09:17:17;;;;;;;8.23;6.13;;;20.40;30.00;;;;;;6246456;23;20398;-86
2023/04/05 09:19:43;;;;;;;9.70;5.63;;;20.80;31.30;;;;;;6241974;23;20948;-86
2023/04/05 09:22:09;;;;;;;8.20;5.67;;;20.30;31.10;;;;;;6244786;23;20379;-86
2023/04/05 09:24:40;;;;;;;10.00;6.23;;;20.40;29.90;;;;;;6243460;23;20524;-85
2023/04/05 09:27:08;;;;;;;7.83;5.90;;;20.60;30.60;;;;;;6243520;22;20450;-85
2023/04/05 09:29:35;;;;;;;6.27;5.63;;;20.10;29.20;;;;;;6244628;22;20453;-85
2023/04/05 09:32:04;;;;;;;7.10;5.50;;;19.00;31.50;;;;;;6243898;23;20931;-85
2023/04/05 09:34:33;;;;;;;7.63;5.60;;;18.80;30.10;;;;;;6244729;22;20410;-85
2023/04/05 09:36:59;;;;;;;6.90;5.60;;;18.70;31.90;;;;;;6242213;23;20376;-84
2023/04/05 09:39:31;;;;;;;7.50;5.03;;;18.90;31.50;;;;;;6243070;22;20398;-85
2023/04/05 09:42:05;;;;;;;7.40;5.03;;;18.00;30.10;;;;;;6239078;23;20387;-85
2023/04/05 09:44:51;;;;;;;7.23;5.57;;;17.30;30.10;;;;;;6242995;22;20371;-85
2023/04/05 09:47:18;;;;;;;7.60;5.87;;;17.50;31.50;;;;;;6243084;22;20362;-85
2023/04/05 09:49:44;;;;;;;11.60;6.20;;;19.00;31.60;;;;;;6239491;22;20827;-85
2023/04/05 09:52:30;;;;;;;10.57;5.63;;;19.00;32.00;;;;;;6241217;23;20426;-84
2023/04/05 09:55:01;;;;;;;9.80;5.80;;;17.40;31.20;;;;;;6240590;22;20362;-84
2023/04/05 09:57:31;;;;;;;7.97;5.47;;;18.70;33.60;;;;;;6238010;22;20376;-84
2023/04/05 09:59:57;;;;;;;8.37;5.53;;;16.90;32.80;;;;;;6239449;22;20356;-85
2023/04/05 10:02:23;;;;;;;8.07;5.77;;;16.80;31.80;;;;;;6239645;23;20395;-85
2023/04/05 10:04:49;;;;;;;6.00;4.63;;;16.50;30.90;;;;;;6240083;22;20145;-85
2023/04/05 10:07:17;;;;;;;12.07;6.30;;;16.00;32.10;;;;;;6241453;22;20794;-85
2023/04/05 10:09:44;;;;;;;6.10;5.03;;;15.50;34.10;;;;;;6241704;22;20415;-84
2023/04/05 10:12:13;;;;;;;12.23;4.80;;;15.50;33.10;;;;;;6239111;23;20383;-84
2023/04/05 10:14:38;;;;;;;7.53;4.70;;;15.80;32.00;;;;;;6240640;22;20405;-84
2023/04/05 10:17:25;;;;;;;6.67;5.17;;;14.60;31.10;;;;;;6241975;22;20683;-84
2023/04/05 10:20:14;;;;;;;7.00;4.70;;;13.10;32.90;;;;;;6240706;23;20148;-84
2023/04/05 10:23:20;;;;;;;7.40;5.72;;;12.10;34.40;;;;;;6242305;22;20468;-85
2023/04/05 10:26:03;;;;;;;9.48;5.15;;;11.10;38.60;;;;;;6252559;22;20148;-83
2023/04/05 10:28:36;;;;;;;13.38;5.60;;;10.50;37.40;;;;;;6255518;22;20206;-83
2023/04/05 10:31:23;;;;;;;6.45;4.70;;;10.10;37.90;;;;;;6256913;22;20231;-83
2023/04/05 10:34:03;;;;;;;6.60;4.63;;;9.90;41.30;;;;;;6257138;22;20141;-83
2023/04/05 10:36:36;;;;;;;6.45;4.80;;;10.20;40.20;;;;;;6255581;22;20143;-83
2023/04/05 10:39:11;;;;;;;6.32;4.70;;;10.10;39.30;;;;;;6255246;22;20175;-83
2023/04/05 10:41:42;;;;;;;10.77;4.45;;;10.00;38.90;;;;;;6254959;22;20136;-83
2023/04/05 10:44:10;;;;;;;9.77;4.85;;;10.00;39.00;;;;;;6254798;22;20133;-83
2023/04/05 10:46:38;;;;;;;7.70;4.88;;;10.20;41.00;;;;;;6255052;22;20149;-83
2023/04/05 10:49:07;;;;;;;7.10;4.82;;;10.30;41.70;;;;;;6254434;22;20267;-82
2023/04/05 10:51:33;;;;;;;15.52;4.95;;;10.00;41.30;;;;;;6254984;23;20316;-83
2023/04/05 10:53:59;;;;;;;6.88;4.90;;;10.00;40.20;;;;;;6253457;23;20290;-82
2023/04/05 10:56:25;;;;;;;8.95;5.70;;;10.00;40.30;;;;;;6255172;22;20158;-83
2023/04/05 10:58:52;;;;;;;13.27;5.22;;;9.70;40.30;;;;;;6255157;22;20224;-83
2023/04/05 11:01:19;;;;;;;9.32;5.90;;;9.60;43.50;;;;;;6255346;22;20141;-83
2023/04/05 11:03:48;;;;;;;7.95;5.15;;;9.40;43.50;;;;;;6254006;22;20601;-83
2023/04/05 11:06:18;;;;;;;7.57;5.47;;;9.40;45.20;;;;;;6255853;22;20208;-83
2023/04/05 11:08:45;;;;;;;7.57;4.95;;;9.60;45.70;;;;;;6255592;22;20182;-83
2023/04/05 11:11:17;;;;;;;9.40;5.85;;;9.80;46.10;;;;;;6255001;22;20180;-83
2023/04/05 11:13:56;;;;;;;7.35;5.10;;;10.10;42.40;;;;;;6255441;22;20133;-83
2023/04/05 11:16:36;;;;;;;9.20;5.82;;;10.00;43.00;;;;;;6253876;22;20159;-83
2023/04/05 11:19:02;;;;;;;6.47;5.32;;;10.10;40.90;;;;;;6253677;22;20184;-83
2023/04/05 11:21:30;;;;;;;7.60;5.40;;;10.10;44.10;;;;;;6254960;23;20156;-83
2023/04/05 11:24:03;;;;;;;10.32;5.47;;;10.10;40.80;;;;;;6253731;23;20167;-82
2023/04/05 11:26:53;;;;;;;14.38;6.50;;;10.30;42.60;;;;;;6257261;22;20148;-82
2023/04/05 11:29:38;;;;;;;12.32;6.45;;;10.50;41.20;;;;;;6250047;22;20307;-84
2023/04/05 11:32:11;;;;;;;7.30;6.15;;;10.20;40.70;;;;;;6257723;23;20173;-83
2023/04/05 11:34:37;;;;;;;7.78;5.30;;;10.00;41.90;;;;;;6258259;22;20144;-83
2023/04/05 11:37:02;;;;;;;8.20;4.90;;;10.00;42.90;;;;;;6259528;23;20614;-83
2023/04/05 11:39:28;;;;;;;7.87;5.83;;;10.00;43.70;;;;;;6259510;22;20168;-83
2023/04/05 11:41:55;;;;;;;7.13;5.17;;;10.00;44.40;;;;;;6260355;22;20153;-83
2023/04/05 11:44:22;;;;;;;6.55;5.28;;;10.00;46.80;;;;;;6260133;22;20368;-83
2023/04/05 11:46:49;;;;;;;7.13;5.40;;;9.70;46.70;;;;;;6258153;23;20152;-83
2023/04/05 11:49:15;;;;;;;6.85;5.35;;;9.90;47.10;;;;;;6259107;22;20181;-83
2023/04/05 11:51:47;;;;;;;8.80;6.00;;;10.00;44.90;;;;;;6257841;23;20157;-83
2023/04/05 11:54:13;;;;;;;15.07;5.55;;;9.80;45.60;;;;;;6260046;22;20125;-83
2023/04/05 11:56:40;;;;;;;9.50;5.68;;;9.80;47.40;;;;;;6259968;22;20149;-83
2023/04/05 11:59:06;;;;;;;6.25;5.18;;;9.60;46.70;;;;;;6259910;22;20248;-83
2023/04/05 12:01:32;;;;;;;7.73;5.63;;;9.50;46.00;;;;;;6259247;23;20155;-83
2023/04/05 12:03:57;;;;;;;8.13;5.57;;;9.50;46.40;;;;;;6260395;23;20156;-83
2023/04/05 12:06:24;;;;;;;8.10;5.70;;;9.60;44.90;;;;;;6258276;23;20159;-83
2023/04/05 12:08:50;;;;;;;6.53;5.20;;;9.60;44.90;;;;;;6259372;22;20176;-83
2023/04/05 12:11:23;;;;;;;7.53;6.03;;;9.60;44.30;;;;;;6259705;23;20155;-83
2023/04/05 12:13:57;;;;;;;7.40;6.72;;;9.80;46.40;;;;;;6259407;22;20116;-83
2023/04/05 12:16:23;;;;;;;7.95;5.38;;;9.60;45.20;;;;;;6259202;23;20125;-83
2023/04/05 12:18:57;;;;;;;6.55;5.95;;;9.60;44.60;;;;;;6259556;22;20180;-83
2023/04/05 12:21:23;;;;;;;7.53;5.20;;;9.70;44.10;;;;;;6259744;23;20645;-83
2023/04/05 12:23:50;;;;;;;13.57;6.28;;;10.10;43.50;;;;;;6259760;23;20145;-84
2023/04/05 12:26:16;;;;;;;7.22;5.75;;;10.50;44.00;;;;;;6259592;23;20231;-83
2023/04/05 12:28:56;;;;;;;6.88;5.70;;;10.80;43.50;;;;;;6259408;22;20177;-83
2023/04/05 12:31:38;;;;;;;7.68;5.35;;;10.70;43.50;;;;;;6258208;23;20535;-83
2023/04/05 12:34:04;;;;;;;9.60;6.30;;;10.30;43.50;;;;;;6232344;23;20159;-83
2023/04/05 12:36:33;;;;;;;7.25;5.28;;;10.30;43.70;;;;;;6259431;23;20129;-83
2023/04/05 12:39:00;;;;;;;9.85;6.10;;;10.50;44.60;;;;;;6259887;22;20659;-82
2023/04/05 12:41:32;;;;;;;9.45;5.28;;;10.70;43.20;;;;;;6258944;23;20159;-83
2023/04/05 12:44:03;;;;;;;6.97;5.28;;;10.60;41.20;;;;;;6258249;23;20210;-83
2023/04/05 12:46:42;;;;;;;13.82;6.75;;;10.90;41.10;;;;;;6258688;23;20145;-83
2023/04/05 12:49:15;;;;;;;7.10;5.68;;;11.10;42.00;;;;;;6258206;22;20173;-83
2023/04/05 12:51:45;;;;;;;8.73;6.53;;;11.20;42.70;;;;;;6257150;23;20140;-83